Time;durP1;ratioP1;P1;durP2;ratioP2;P2;SDS_P1;SDS_P2;PMS_P1;PMS_P2;Temp;Humidity;BMP_temperature;BMP_pressure;BME280_temperature;BME280_humidity;BME280_pressure;Samples;Min_cycle;Max_cycle;Signal;HPM_P1;HPM_P2
2022/03/05 00:00:00;;;;;;;23.53;15.70;;;;;;;;;;4997191;28;20049;-52
2022/03/05 00:02:26;;;;;;;21.60;14.87;;;;;;;;;;4998363;28;20030;-51
2022/03/05 00:04:52;;;;;;;21.80;15.50;;;;;;;;;;4995427;28;20030;-55
2022/03/05 00:07:21;;;;;;;22.77;15.13;;;;;;;;;;5001577;28;20041;-54
2022/03/05 00:09:47;;;;;;;20.00;13.97;;;;;;;;;;4995321;28;20026;-55
2022/03/05 00:12:13;;;;;;;22.73;15.33;;;;;;;;;;4997288;28;20114;-56
2022/03/05 00:14:39;;;;;;;21.73;13.50;;;;;;;;;;4997108;28;20058;-55
2022/03/05 00:17:05;;;;;;;20.60;14.07;;;;;;;;;;4992258;28;20069;-54
2022/03/05 00:19:31;;;;;;;22.67;14.20;;;;;;;;;;5009694;28;20034;-56
2022/03/05 00:21:59;;;;;;;23.20;13.73;;;;;;;;;;4993061;28;20045;-57
2022/03/05 00:24:25;;;;;;;19.17;13.17;;;;;;;;;;4997622;28;20077;-54
2022/03/05 00:26:51;;;;;;;19.97;14.40;;;;;;;;;;4999354;28;20432;-55
2022/03/05 00:29:17;;;;;;;19.80;13.67;;;;;;;;;;4999337;28;20550;-55
2022/03/05 00:31:43;;;;;;;21.40;13.87;;;;;;;;;;4996918;28;20034;-52
2022/03/05 00:34:09;;;;;;;24.93;14.37;;;;;;;;;;4996974;28;20033;-56
2022/03/05 00:36:40;;;;;;;21.17;13.40;;;;;;;;;;5005816;28;20392;-54
2022/03/05 00:39:06;;;;;;;20.73;13.93;;;;;;;;;;5001848;28;20029;-56
2022/03/05 00:41:33;;;;;;;19.50;14.00;;;;;;;;;;5000046;28;20158;-55
2022/03/05 00:43:59;;;;;;;24.10;14.50;;;;;;;;;;4980546;28;20396;-55
2022/03/05 00:46:26;;;;;;;20.57;12.90;;;;;;;;;;4997339;28;20046;-54
2022/03/05 00:48:52;;;;;;;20.17;12.90;;;;;;;;;;4999957;28;20032;-54
2022/03/05 00:51:19;;;;;;;20.77;13.30;;;;;;;;;;4968847;28;20062;-54
2022/03/05 00:53:45;;;;;;;20.93;13.50;;;;;;;;;;4961095;28;20062;-54
2022/03/05 00:56:11;;;;;;;18.47;12.57;;;;;;;;;;4973897;28;20062;-56
2022/03/05 00:58:37;;;;;;;19.30;13.37;;;;;;;;;;4974211;28;20105;-55
2022/03/05 01:01:03;;;;;;;19.97;13.40;;;;;;;;;;4944122;28;20047;-55
2022/03/05 01:03:29;;;;;;;18.50;12.73;;;;;;;;;;4972292;28;20077;-56
2022/03/05 01:05:55;;;;;;;18.33;12.07;;;;;;;;;;4973663;28;20089;-55
2022/03/05 01:08:21;;;;;;;19.20;13.10;;;;;;;;;;4963318;28;20053;-54
2022/03/05 01:10:47;;;;;;;19.97;13.23;;;;;;;;;;4970837;28;20135;-55
2022/03/05 01:13:13;;;;;;;21.07;13.07;;;;;;;;;;4968444;28;20122;-55
2022/03/05 01:15:39;;;;;;;21.60;12.47;;;;;;;;;;4974598;28;20089;-56
2022/03/05 01:18:05;;;;;;;18.67;13.00;;;;;;;;;;4966978;28;20027;-55
2022/03/05 01:20:31;;;;;;;21.50;12.37;;;;;;;;;;4954167;28;20049;-54
2022/03/05 01:22:57;;;;;;;19.47;13.33;;;;;;;;;;4970313;28;20031;-57
2022/03/05 01:25:23;;;;;;;21.10;13.17;;;;;;;;;;4972389;28;20034;-53
2022/03/05 01:27:50;;;;;;;22.30;13.57;;;;;;;;;;4974575;28;20027;-55
2022/03/05 01:30:16;;;;;;;25.40;12.80;;;;;;;;;;4965151;28;20031;-56
2022/03/05 01:32:42;;;;;;;19.37;12.20;;;;;;;;;;4973831;28;20039;-56
2022/03/05 01:35:08;;;;;;;18.20;12.70;;;;;;;;;;4974349;28;20027;-55
2022/03/05 01:37:34;;;;;;;19.20;12.23;;;;;;;;;;4956937;28;20027;-53
2022/03/05 01:40:01;;;;;;;18.13;12.67;;;;;;;;;;4957487;28;20042;-56
2022/03/05 01:42:27;;;;;;;20.93;13.20;;;;;;;;;;4965897;28;20049;-56
2022/03/05 01:44:53;;;;;;;17.70;11.63;;;;;;;;;;4973826;28;20046;-55
2022/03/05 01:47:19;;;;;;;16.87;11.80;;;;;;;;;;4966305;28;20384;-57
2022/03/05 01:50:04;;;;;;;18.57;11.80;;;;;;;;;;4956800;28;20520;-55
2022/03/05 01:52:30;;;;;;;20.17;13.07;;;;;;;;;;4992014;28;20049;-55
2022/03/05 01:54:56;;;;;;;18.53;12.47;;;;;;;;;;4987716;28;20034;-55
2022/03/05 01:57:22;;;;;;;17.33;11.77;;;;;;;;;;4991175;28;20026;-56
2022/03/05 01:59:49;;;;;;;20.07;12.83;;;;;;;;;;4991019;28;20037;-55
2022/03/05 02:02:15;;;;;;;19.83;12.53;;;;;;;;;;4983637;28;20037;-52
2022/03/05 02:04:41;;;;;;;22.40;13.47;;;;;;;;;;4992535;28;20022;-57
2022/03/05 02:07:07;;;;;;;19.00;12.47;;;;;;;;;;4994816;28;20046;-55
2022/03/05 02:09:33;;;;;;;20.40;12.63;;;;;;;;;;4982032;28;20029;-55
2022/03/05 02:11:59;;;;;;;19.03;12.90;;;;;;;;;;4993898;28;20392;-56
2022/03/05 02:14:25;;;;;;;17.93;12.00;;;;;;;;;;4987981;28;20472;-54
2022/03/05 02:16:51;;;;;;;18.90;13.23;;;;;;;;;;4983832;28;20031;-54
2022/03/05 02:19:17;;;;;;;17.20;12.77;;;;;;;;;;4991284;28;20092;-53
2022/03/05 02:21:46;;;;;;;19.23;12.33;;;;;;;;;;4988820;28;20030;-55
2022/03/05 02:24:12;;;;;;;17.63;12.87;;;;;;;;;;4992567;28;20057;-54
2022/03/05 02:26:38;;;;;;;15.87;12.33;;;;;;;;;;4991640;28;20076;-56
2022/03/05 02:29:04;;;;;;;18.60;13.30;;;;;;;;;;4979143;28;20066;-55
2022/03/05 02:31:30;;;;;;;23.10;13.53;;;;;;;;;;4984638;28;20418;-56
2022/03/05 02:33:56;;;;;;;18.03;12.73;;;;;;;;;;4993012;28;20077;-50
2022/03/05 02:36:25;;;;;;;21.97;14.17;;;;;;;;;;4976186;28;20068;-50
2022/03/05 02:38:51;;;;;;;20.53;14.03;;;;;;;;;;4993895;28;20026;-51
2022/03/05 02:41:20;;;;;;;21.47;14.50;;;;;;;;;;4999725;28;20058;-53
2022/03/05 02:43:46;;;;;;;24.67;14.50;;;;;;;;;;4992527;28;20031;-51
2022/03/05 02:46:12;;;;;;;18.47;13.90;;;;;;;;;;4987961;28;20046;-52
2022/03/05 02:48:39;;;;;;;20.07;13.70;;;;;;;;;;4991069;28;20030;-52
2022/03/05 02:51:05;;;;;;;20.00;14.00;;;;;;;;;;4993290;28;20484;-55
2022/03/05 02:53:31;;;;;;;24.83;14.50;;;;;;;;;;4990484;28;20029;-54
2022/03/05 02:55:57;;;;;;;21.80;13.70;;;;;;;;;;4999028;28;20054;-55
2022/03/05 02:58:23;;;;;;;22.83;14.70;;;;;;;;;;4994379;28;20065;-53
2022/03/05 03:00:50;;;;;;;21.27;14.23;;;;;;;;;;4991423;28;20070;-53
2022/03/05 03:03:16;;;;;;;17.97;13.57;;;;;;;;;;5003323;28;20042;-55
2022/03/05 03:05:42;;;;;;;26.10;14.50;;;;;;;;;;4992183;28;20480;-51
2022/03/05 03:08:08;;;;;;;21.13;13.57;;;;;;;;;;5004383;28;20034;-52
2022/03/05 03:10:34;;;;;;;20.90;15.07;;;;;;;;;;5006118;28;20113;-52
2022/03/05 03:13:00;;;;;;;20.57;14.13;;;;;;;;;;4994369;28;20037;-51
2022/03/05 03:15:27;;;;;;;22.20;14.10;;;;;;;;;;4984589;28;20118;-52
2022/03/05 03:17:53;;;;;;;19.67;13.63;;;;;;;;;;4993244;28;20029;-52
2022/03/05 03:20:23;;;;;;;21.50;14.50;;;;;;;;;;4981735;28;20049;-53
2022/03/05 03:22:50;;;;;;;22.47;14.67;;;;;;;;;;5013363;28;20050;-53
2022/03/05 03:25:17;;;;;;;21.03;14.80;;;;;;;;;;4994092;28;20106;-51
2022/03/05 03:27:43;;;;;;;21.87;14.53;;;;;;;;;;4998653;28;20022;-51
2022/03/05 03:30:10;;;;;;;19.60;13.40;;;;;;;;;;4998819;28;20062;-51
2022/03/05 03:32:36;;;;;;;17.70;12.90;;;;;;;;;;4994576;28;20030;-50
2022/03/05 03:35:03;;;;;;;19.33;13.67;;;;;;;;;;5001074;28;20508;-51
2022/03/05 03:37:31;;;;;;;19.07;13.53;;;;;;;;;;5005015;28;20027;-51
2022/03/05 03:39:57;;;;;;;20.90;13.00;;;;;;;;;;4993717;28;20029;-52
2022/03/05 03:42:23;;;;;;;19.93;13.20;;;;;;;;;;5002923;28;20034;-52
2022/03/05 03:44:49;;;;;;;18.53;13.50;;;;;;;;;;5003631;28;20069;-53
2022/03/05 03:47:15;;;;;;;18.77;13.47;;;;;;;;;;5000625;28;20061;-51
2022/03/05 03:49:41;;;;;;;17.90;12.50;;;;;;;;;;4996909;28;20034;-51
2022/03/05 03:52:07;;;;;;;20.13;13.00;;;;;;;;;;4995690;28;20039;-53
2022/03/05 03:54:33;;;;;;;19.47;12.87;;;;;;;;;;4991898;28;20492;-51
2022/03/05 03:56:59;;;;;;;19.47;13.90;;;;;;;;;;5013097;28;20018;-52
2022/03/05 03:59:25;;;;;;;18.70;13.40;;;;;;;;;;5002284;28;20035;-54
2022/03/05 04:01:51;;;;;;;21.67;12.83;;;;;;;;;;5007211;28;20550;-52
2022/03/05 04:04:17;;;;;;;18.07;13.00;;;;;;;;;;5004588;28;20030;-52
2022/03/05 04:09:28;;;;;;;17.65;12.05;;;;;;;;;;4989789;28;20085;-52
2022/03/05 04:11:54;;;;;;;18.50;12.97;;;;;;;;;;5008426;28;20037;-52
2022/03/05 04:14:20;;;;;;;17.60;12.47;;;;;;;;;;5003387;28;20023;-55
2022/03/05 04:16:46;;;;;;;24.13;13.60;;;;;;;;;;5004462;28;20026;-54
2022/03/05 04:19:12;;;;;;;20.00;12.83;;;;;;;;;;4993863;28;20026;-53
2022/03/05 04:21:38;;;;;;;18.97;12.90;;;;;;;;;;5000026;28;20057;-52
2022/03/05 04:24:04;;;;;;;19.97;13.13;;;;;;;;;;4996042;28;20463;-54
2022/03/05 04:26:30;;;;;;;20.93;12.97;;;;;;;;;;5012616;28;20079;-57
2022/03/05 04:28:56;;;;;;;17.83;12.80;;;;;;;;;;4997831;28;20428;-52
2022/03/05 04:31:22;;;;;;;20.50;13.67;;;;;;;;;;5005062;28;20114;-56
2022/03/05 04:33:48;;;;;;;17.50;13.43;;;;;;;;;;5008290;28;20022;-56
2022/03/05 04:36:14;;;;;;;20.17;12.37;;;;;;;;;;4992930;28;20657;-54
2022/03/05 04:38:40;;;;;;;20.80;12.77;;;;;;;;;;4996795;28;20037;-54
2022/03/05 04:41:06;;;;;;;21.87;13.23;;;;;;;;;;4972927;28;20369;-53
2022/03/05 04:43:32;;;;;;;17.60;12.63;;;;;;;;;;4994825;28;20030;-53
2022/03/05 04:45:58;;;;;;;20.50;12.50;;;;;;;;;;4993238;28;20026;-54
2022/03/05 04:48:24;;;;;;;20.40;13.63;;;;;;;;;;5013205;28;20026;-52
2022/03/05 04:50:50;;;;;;;19.97;12.60;;;;;;;;;;4997352;28;20412;-55
2022/03/05 04:53:19;;;;;;;20.97;13.47;;;;;;;;;;5010752;28;20026;-55
2022/03/05 04:55:46;;;;;;;21.80;13.43;;;;;;;;;;4998650;28;20022;-53
2022/03/05 04:58:12;;;;;;;22.23;14.30;;;;;;;;;;5002578;28;20022;-53
2022/03/05 05:00:38;;;;;;;22.30;14.07;;;;;;;;;;4988854;28;20069;-54
2022/03/05 05:03:04;;;;;;;18.57;13.47;;;;;;;;;;5001610;28;20084;-51
2022/03/05 05:05:30;;;;;;;23.90;13.63;;;;;;;;;;5001800;28;20034;-53
2022/03/05 05:07:56;;;;;;;21.27;13.80;;;;;;;;;;5000425;28;20085;-52
2022/03/05 05:10:22;;;;;;;22.17;14.37;;;;;;;;;;4988222;28;20042;-53
2022/03/05 05:12:48;;;;;;;22.00;13.70;;;;;;;;;;4992066;28;20025;-51
2022/03/05 05:15:14;;;;;;;28.47;14.10;;;;;;;;;;5004736;28;20038;-53
2022/03/05 05:17:40;;;;;;;22.70;12.70;;;;;;;;;;4998573;28;20071;-55
2022/03/05 05:20:07;;;;;;;24.37;14.90;;;;;;;;;;4992141;28;20031;-51
2022/03/05 05:22:33;;;;;;;22.60;13.77;;;;;;;;;;4995783;28;20026;-54
2022/03/05 05:25:00;;;;;;;22.53;14.17;;;;;;;;;;4996915;28;20051;-52
2022/03/05 05:27:26;;;;;;;23.70;14.33;;;;;;;;;;5000939;28;20029;-53
2022/03/05 05:29:52;;;;;;;22.83;15.30;;;;;;;;;;4981693;28;20077;-55
2022/03/05 05:32:18;;;;;;;24.17;14.53;;;;;;;;;;4995228;28;20522;-54
2022/03/05 05:34:44;;;;;;;23.33;15.13;;;;;;;;;;4999100;28;20085;-56
2022/03/05 05:37:10;;;;;;;22.37;15.37;;;;;;;;;;4994819;28;20073;-50
2022/03/05 05:39:36;;;;;;;24.43;14.80;;;;;;;;;;4986103;28;20053;-52
2022/03/05 05:42:03;;;;;;;26.07;15.77;;;;;;;;;;4999829;28;20030;-53
2022/03/05 05:44:29;;;;;;;25.53;15.70;;;;;;;;;;5004603;28;20113;-54
2022/03/05 05:46:55;;;;;;;26.60;15.87;;;;;;;;;;4991848;28;20034;-51
2022/03/05 05:49:21;;;;;;;24.13;15.33;;;;;;;;;;4983969;28;20033;-55
2022/03/05 05:51:47;;;;;;;25.23;15.57;;;;;;;;;;4988557;28;20108;-55
2022/03/05 05:54:13;;;;;;;27.33;16.27;;;;;;;;;;4988304;28;20038;-57
2022/03/05 05:56:39;;;;;;;27.03;16.10;;;;;;;;;;4985729;28;20557;-53
2022/03/05 05:59:06;;;;;;;26.93;17.00;;;;;;;;;;5003765;28;20026;-55
2022/03/05 06:01:32;;;;;;;28.80;16.50;;;;;;;;;;4997987;28;20039;-55
2022/03/05 06:03:58;;;;;;;26.93;17.93;;;;;;;;;;4993515;28;20168;-53
2022/03/05 06:06:24;;;;;;;23.43;15.33;;;;;;;;;;4997904;28;20503;-52
2022/03/05 06:08:50;;;;;;;25.77;15.20;;;;;;;;;;5001865;28;20049;-54
2022/03/05 06:11:16;;;;;;;24.80;16.13;;;;;;;;;;4976300;28;20034;-54
2022/03/05 06:13:43;;;;;;;30.07;17.17;;;;;;;;;;4997075;28;20034;-52
2022/03/05 06:16:09;;;;;;;28.67;15.60;;;;;;;;;;4999663;28;20054;-55
2022/03/05 06:18:35;;;;;;;27.20;16.50;;;;;;;;;;4989841;28;20034;-52
2022/03/05 06:21:01;;;;;;;31.37;17.07;;;;;;;;;;4989002;28;20034;-52
2022/03/05 06:23:29;;;;;;;24.17;16.10;;;;;;;;;;4993551;28;20058;-56
2022/03/05 06:25:55;;;;;;;26.67;16.53;;;;;;;;;;4990728;28;20049;-51
2022/03/05 06:28:21;;;;;;;31.13;16.93;;;;;;;;;;4996031;28;20480;-51
2022/03/05 06:30:47;;;;;;;29.10;15.90;;;;;;;;;;4992953;28;20030;-53
2022/03/05 06:33:13;;;;;;;27.00;16.40;;;;;;;;;;4999658;28;20031;-54
2022/03/05 06:35:39;;;;;;;24.50;15.67;;;;;;;;;;4987689;28;20041;-56
2022/03/05 06:38:05;;;;;;;26.20;16.37;;;;;;;;;;4980044;28;20018;-56
2022/03/05 06:40:31;;;;;;;26.50;16.53;;;;;;;;;;4999204;28;20056;-53
2022/03/05 06:42:57;;;;;;;26.47;15.77;;;;;;;;;;5000269;28;20061;-55
2022/03/05 06:45:23;;;;;;;28.17;15.53;;;;;;;;;;4978670;28;20030;-51
2022/03/05 06:47:49;;;;;;;29.93;17.17;;;;;;;;;;5008753;28;20384;-53
2022/03/05 06:50:15;;;;;;;25.87;15.23;;;;;;;;;;4995452;28;20102;-54
2022/03/05 06:52:41;;;;;;;25.30;15.33;;;;;;;;;;4996587;28;20066;-53
2022/03/05 06:55:08;;;;;;;30.30;16.60;;;;;;;;;;4997645;28;20113;-54
2022/03/05 06:57:35;;;;;;;23.90;14.87;;;;;;;;;;5009761;28;20038;-53
2022/03/05 07:00:01;;;;;;;25.00;15.47;;;;;;;;;;5005988;28;20483;-53
2022/03/05 07:02:27;;;;;;;24.73;16.23;;;;;;;;;;4991397;28;20373;-52
2022/03/05 07:04:53;;;;;;;26.17;15.93;;;;;;;;;;4989328;28;20022;-52
2022/03/05 07:13:26;;;;;;;25.20;15.30;;;;;;;;;;4989833;28;20038;-55
2022/03/05 07:15:52;;;;;;;29.87;15.73;;;;;;;;;;4994057;28;20026;-55
2022/03/05 07:18:18;;;;;;;27.13;15.70;;;;;;;;;;4991013;28;20041;-52
2022/03/05 07:20:44;;;;;;;23.90;15.27;;;;;;;;;;4981363;28;20042;-54
2022/03/05 07:23:10;;;;;;;25.50;17.03;;;;;;;;;;4974587;28;20497;-54
2022/03/05 07:25:39;;;;;;;25.40;15.27;;;;;;;;;;4975776;28;20034;-54
2022/03/05 07:28:06;;;;;;;26.23;15.87;;;;;;;;;;4978855;28;20031;-54
2022/03/05 07:30:32;;;;;;;25.50;15.77;;;;;;;;;;4992086;28;20396;-53
2022/03/05 07:32:58;;;;;;;27.73;15.60;;;;;;;;;;4992642;28;20031;-53
2022/03/05 07:35:24;;;;;;;31.63;16.53;;;;;;;;;;4974350;28;20045;-54
2022/03/05 07:37:50;;;;;;;26.43;14.80;;;;;;;;;;4975249;28;20121;-54
2022/03/05 07:40:16;;;;;;;25.53;15.43;;;;;;;;;;4990615;28;20465;-51
2022/03/05 07:42:42;;;;;;;27.83;15.53;;;;;;;;;;4986332;28;20031;-53
2022/03/05 07:45:08;;;;;;;25.20;15.33;;;;;;;;;;4976033;28;20469;-52
2022/03/05 07:47:34;;;;;;;27.50;16.30;;;;;;;;;;4974385;28;20030;-54
2022/03/05 07:50:01;;;;;;;26.50;16.60;;;;;;;;;;4988654;28;20022;-53
2022/03/05 07:52:27;;;;;;;21.87;15.57;;;;;;;;;;4973754;28;20089;-53
2022/03/05 07:54:53;;;;;;;29.60;16.37;;;;;;;;;;4985835;28;20026;-54
2022/03/05 07:57:19;;;;;;;25.10;15.77;;;;;;;;;;5001096;28;20458;-54
2022/03/05 07:59:45;;;;;;;24.23;15.87;;;;;;;;;;4980280;28;20047;-54
2022/03/05 08:02:11;;;;;;;24.10;15.63;;;;;;;;;;4990206;28;20396;-56
2022/03/05 08:04:37;;;;;;;27.40;16.60;;;;;;;;;;4990483;28;20026;-54
2022/03/05 08:07:07;;;;;;;22.97;15.50;;;;;;;;;;4993616;28;20030;-54
2022/03/05 08:09:33;;;;;;;25.80;15.27;;;;;;;;;;4982471;28;20031;-54
2022/03/05 08:11:59;;;;;;;25.77;15.67;;;;;;;;;;4977255;28;20054;-56
2022/03/05 08:14:25;;;;;;;26.37;15.87;;;;;;;;;;4975023;28;20139;-56
2022/03/05 08:16:51;;;;;;;27.53;15.33;;;;;;;;;;4993197;28;20031;-53
2022/03/05 08:19:17;;;;;;;27.00;16.33;;;;;;;;;;4988849;28;20041;-55
2022/03/05 08:21:44;;;;;;;26.63;15.47;;;;;;;;;;4980725;28;20035;-55
2022/03/05 08:24:10;;;;;;;25.17;15.90;;;;;;;;;;4984610;28;20557;-56
2022/03/05 08:26:37;;;;;;;24.70;14.67;;;;;;;;;;5016119;28;20036;-55
2022/03/05 08:29:03;;;;;;;27.27;15.47;;;;;;;;;;5004295;28;20064;-56
2022/03/05 08:31:31;;;;;;;27.57;14.90;;;;;;;;;;4978709;28;20055;-57
2022/03/05 08:33:58;;;;;;;21.63;15.50;;;;;;;;;;4991949;28;20029;-55
2022/03/05 08:36:24;;;;;;;28.57;15.27;;;;;;;;;;4999029;28;20037;-56
2022/03/05 08:38:50;;;;;;;23.90;15.13;;;;;;;;;;5012021;28;20026;-56
2022/03/05 08:41:17;;;;;;;23.83;13.60;;;;;;;;;;5003636;28;20038;-56
2022/03/05 08:43:43;;;;;;;24.53;15.70;;;;;;;;;;4980664;28;20034;-54
2022/03/05 08:46:09;;;;;;;23.93;14.30;;;;;;;;;;4998277;28;20029;-55
2022/03/05 08:48:35;;;;;;;26.20;15.07;;;;;;;;;;4998155;28;20034;-56
2022/03/05 08:51:01;;;;;;;24.00;15.07;;;;;;;;;;4976639;28;20117;-55
2022/03/05 08:53:27;;;;;;;26.70;15.57;;;;;;;;;;4982806;28;20030;-56
2022/03/05 08:55:53;;;;;;;25.77;15.07;;;;;;;;;;4978716;28;20388;-56
2022/03/05 08:58:20;;;;;;;20.77;14.33;;;;;;;;;;4996560;28;20030;-55
2022/03/05 09:00:46;;;;;;;23.33;14.37;;;;;;;;;;4994616;28;20039;-52
2022/03/05 09:03:12;;;;;;;21.53;13.97;;;;;;;;;;4996303;28;20027;-53
2022/03/05 09:05:38;;;;;;;24.83;14.50;;;;;;;;;;4978810;28;20093;-56
2022/03/05 09:08:04;;;;;;;21.97;14.83;;;;;;;;;;4981248;28;20038;-55
2022/03/05 09:10:30;;;;;;;22.33;13.77;;;;;;;;;;4973370;28;20453;-55
2022/03/05 09:16:12;;;;;;;23.53;14.83;;;;;;;;;;4989979;28;20128;-54
2022/03/05 09:18:39;;;;;;;24.03;13.67;;;;;;;;;;4987492;28;20031;-54
2022/03/05 09:21:05;;;;;;;23.90;15.33;;;;;;;;;;4976170;28;20511;-52
2022/03/05 09:23:31;;;;;;;23.90;14.63;;;;;;;;;;4976185;28;20090;-52
2022/03/05 09:25:57;;;;;;;21.53;13.40;;;;;;;;;;5000424;28;20033;-51
2022/03/05 09:28:23;;;;;;;21.03;14.80;;;;;;;;;;4987289;28;20456;-54
2022/03/05 09:30:49;;;;;;;23.70;14.77;;;;;;;;;;5014461;28;20037;-56
2022/03/05 09:33:15;;;;;;;22.03;13.67;;;;;;;;;;4984400;28;20026;-55
2022/03/05 09:35:41;;;;;;;25.23;15.03;;;;;;;;;;4987346;28;20439;-51
2022/03/05 09:38:07;;;;;;;22.67;14.03;;;;;;;;;;4989216;28;20037;-53
2022/03/05 09:40:33;;;;;;;23.63;14.67;;;;;;;;;;5014998;28;20038;-54
2022/03/05 09:43:01;;;;;;;19.77;13.13;;;;;;;;;;4987791;28;20123;-53
2022/03/05 09:45:27;;;;;;;23.63;14.07;;;;;;;;;;4989233;28;20080;-54
2022/03/05 09:47:55;;;;;;;22.00;14.30;;;;;;;;;;4983213;28;20042;-56
2022/03/05 09:50:21;;;;;;;24.50;15.07;;;;;;;;;;4983952;28;20030;-52
2022/03/05 09:52:47;;;;;;;26.87;13.50;;;;;;;;;;4976072;28;20031;-51
2022/03/05 09:55:13;;;;;;;22.07;14.10;;;;;;;;;;4986528;28;20030;-54
2022/03/05 09:57:39;;;;;;;24.10;12.73;;;;;;;;;;4985711;28;20037;-56
2022/03/05 10:00:06;;;;;;;17.00;12.57;;;;;;;;;;4975513;28;20065;-52
2022/03/05 10:02:32;;;;;;;20.20;12.73;;;;;;;;;;4978885;28;20052;-55
2022/03/05 10:05:17;;;;;;;18.27;11.57;;;;;;;;;;4995199;28;20034;-56
2022/03/05 10:08:02;;;;;;;25.25;14.07;;;;;;;;;;4994851;28;20023;-56
2022/03/05 10:10:30;;;;;;;21.05;12.68;;;;;;;;;;4986703;28;20369;-57
2022/03/05 10:12:56;;;;;;;20.27;13.40;;;;;;;;;;4994701;28;20117;-56
2022/03/05 10:15:22;;;;;;;21.57;13.13;;;;;;;;;;4968794;28;20113;-56
2022/03/05 10:17:56;;;;;;;19.53;12.70;;;;;;;;;;4975287;28;20101;-52
2022/03/05 10:20:27;;;;;;;14.77;9.67;;;;;;;;;;4977160;28;20062;-56
2022/03/05 10:23:04;;;;;;;18.37;12.03;;;;;;;;;;4975128;28;20030;-49
2022/03/05 10:25:31;;;;;;;20.60;11.33;;;;;;;;;;4984019;28;20034;-51
2022/03/05 10:28:01;;;;;;;19.03;11.90;;;;;;;;;;4994698;28;20037;-55
2022/03/05 10:30:31;;;;;;;20.40;10.97;;;;;;;;;;4991604;28;20113;-55
2022/03/05 10:32:57;;;;;;;14.13;10.77;;;;;;;;;;4977001;28;20037;-56
2022/03/05 10:35:24;;;;;;;17.60;11.10;;;;;;;;;;4993193;28;20420;-56
2022/03/05 10:37:53;;;;;;;15.77;10.93;;;;;;;;;;4983457;28;20425;-55
2022/03/05 10:40:30;;;;;;;18.73;11.70;;;;;;;;;;4973993;28;20042;-52
2022/03/05 10:42:58;;;;;;;19.17;11.77;;;;;;;;;;4985656;28;20026;-57
2022/03/05 10:45:24;;;;;;;16.93;11.83;;;;;;;;;;4986421;28;20043;-54
2022/03/05 10:47:51;;;;;;;16.83;11.20;;;;;;;;;;4974735;28;20031;-56
2022/03/05 10:50:20;;;;;;;18.73;11.97;;;;;;;;;;4976105;28;20038;-51
2022/03/05 10:52:47;;;;;;;17.83;11.67;;;;;;;;;;4983543;28;20041;-55
2022/03/05 10:55:36;;;;;;;17.30;11.57;;;;;;;;;;4988490;28;20049;-54
2022/03/05 10:58:16;;;;;;;16.63;11.70;;;;;;;;;;4974460;28;20046;-54
2022/03/05 11:00:42;;;;;;;14.63;10.37;;;;;;;;;;4974571;28;20035;-55
2022/03/05 11:03:08;;;;;;;18.43;11.47;;;;;;;;;;4969168;28;20029;-54
2022/03/05 11:05:34;;;;;;;17.43;11.37;;;;;;;;;;4975269;28;20034;-52
2022/03/05 11:08:01;;;;;;;17.70;10.70;;;;;;;;;;4994738;28;20062;-56
2022/03/05 11:10:29;;;;;;;16.90;11.87;;;;;;;;;;4986621;28;20476;-51
2022/03/05 11:12:59;;;;;;;17.60;12.27;;;;;;;;;;4974482;28;20026;-56
2022/03/05 11:15:26;;;;;;;17.53;11.27;;;;;;;;;;4975000;28;20045;-57
2022/03/05 11:17:52;;;;;;;17.07;11.30;;;;;;;;;;4974272;28;20035;-52
2022/03/05 11:20:19;;;;;;;15.57;10.97;;;;;;;;;;4973700;28;20035;-55
2022/03/05 11:22:49;;;;;;;17.73;11.53;;;;;;;;;;4975352;28;20049;-53
2022/03/05 11:25:17;;;;;;;16.07;10.33;;;;;;;;;;4992007;28;20484;-55
2022/03/05 11:27:55;;;;;;;22.03;11.03;;;;;;;;;;4975839;28;20033;-55
2022/03/05 11:30:21;;;;;;;17.57;10.77;;;;;;;;;;4969971;28;20551;-56
2022/03/05 11:32:47;;;;;;;18.63;11.73;;;;;;;;;;4985329;28;20046;-56
2022/03/05 11:35:24;;;;;;;16.50;11.50;;;;;;;;;;4978050;28;20032;-56
2022/03/05 11:37:50;;;;;;;17.60;11.17;;;;;;;;;;4993708;28;20504;-58
2022/03/05 11:40:35;;;;;;;15.47;10.93;;;;;;;;;;4984569;28;20046;-63
2022/03/05 11:43:16;;;;;;;15.70;10.50;;;;;;;;;;4982288;28;20081;-63
2022/03/05 11:46:08;;;;;;;18.00;10.90;;;;;;;;;;4974163;28;20035;-65
2022/03/05 11:48:38;;;;;;;17.47;11.10;;;;;;;;;;4985857;28;20113;-54
2022/03/05 11:51:08;;;;;;;16.53;11.60;;;;;;;;;;4986529;28;20424;-57
2022/03/05 11:53:35;;;;;;;15.00;10.27;;;;;;;;;;4980163;28;20046;-55
2022/03/05 11:56:19;;;;;;;16.33;12.60;;;;;;;;;;4987195;28;20018;-55
2022/03/05 11:58:45;;;;;;;18.33;12.27;;;;;;;;;;4974228;28;20039;-57
2022/03/05 12:01:35;;;;;;;15.03;10.87;;;;;;;;;;4978354;28;20038;-54
2022/03/05 12:04:04;;;;;;;16.57;12.27;;;;;;;;;;4989527;28;20065;-54
2022/03/05 12:06:42;;;;;;;18.50;11.70;;;;;;;;;;4996335;28;20030;-54
2022/03/05 12:09:28;;;;;;;17.65;10.90;;;;;;;;;;4992518;28;20480;-55
2022/03/05 12:11:55;;;;;;;18.63;11.87;;;;;;;;;;4981430;28;20065;-54
2022/03/05 12:14:21;;;;;;;18.20;11.40;;;;;;;;;;4977746;28;20098;-54
2022/03/05 12:16:48;;;;;;;16.43;11.50;;;;;;;;;;4977576;28;20500;-52
2022/03/05 12:19:15;;;;;;;16.80;11.03;;;;;;;;;;4976770;28;20485;-54
2022/03/05 12:21:41;;;;;;;20.83;12.53;;;;;;;;;;4984560;28;20420;-54
2022/03/05 12:24:09;;;;;;;16.63;11.77;;;;;;;;;;4976413;28;20404;-55
2022/03/05 12:26:36;;;;;;;16.33;12.23;;;;;;;;;;4976700;28;20090;-51
2022/03/05 12:29:03;;;;;;;15.00;11.37;;;;;;;;;;4995337;28;20476;-52
2022/03/05 12:31:29;;;;;;;17.70;12.90;;;;;;;;;;4982845;28;20042;-53
2022/03/05 12:33:55;;;;;;;16.83;11.47;;;;;;;;;;4978314;28;20164;-52
2022/03/05 12:36:22;;;;;;;19.03;12.70;;;;;;;;;;4980333;28;20475;-54
2022/03/05 12:38:58;;;;;;;20.00;13.15;;;;;;;;;;4976830;28;20051;-54
2022/03/05 12:41:25;;;;;;;19.38;13.15;;;;;;;;;;4985463;28;20055;-54
2022/03/05 12:43:51;;;;;;;18.00;11.65;;;;;;;;;;4977013;28;20023;-55
2022/03/05 12:46:17;;;;;;;13.93;10.85;;;;;;;;;;4977202;28;20076;-53
2022/03/05 12:48:43;;;;;;;13.65;10.85;;;;;;;;;;4996355;28;20030;-53
2022/03/05 12:51:09;;;;;;;18.35;11.60;;;;;;;;;;4989482;28;20125;-52
2022/03/05 12:53:35;;;;;;;14.98;10.95;;;;;;;;;;4976513;28;20022;-55
2022/03/05 12:56:03;;;;;;;21.27;12.27;;;;;;;;;;4977553;28;20037;-53
2022/03/05 12:58:33;;;;;;;18.42;12.05;;;;;;;;;;4989145;28;20065;-52
2022/03/05 13:01:01;;;;;;;16.02;12.00;;;;;;;;;;5003654;28;20031;-51
2022/03/05 13:03:28;;;;;;;14.98;11.00;;;;;;;;;;4976936;28;20027;-56
2022/03/05 13:05:56;;;;;;;15.93;12.20;;;;;;;;;;4975632;28;20381;-55
2022/03/05 13:08:26;;;;;;;19.77;11.40;;;;;;;;;;4982077;28;20032;-51
2022/03/05 13:11:09;;;;;;;15.93;11.27;;;;;;;;;;4991291;28;20018;-53
2022/03/05 13:13:36;;;;;;;13.07;10.40;;;;;;;;;;4976417;28;20027;-53
2022/03/05 13:16:04;;;;;;;15.38;11.50;;;;;;;;;;4976441;28;20026;-54
2022/03/05 13:18:30;;;;;;;16.55;11.35;;;;;;;;;;4981476;28;20040;-51
2022/03/05 13:21:00;;;;;;;15.77;12.07;;;;;;;;;;4991166;28;20038;-55
2022/03/05 13:23:26;;;;;;;15.00;11.68;;;;;;;;;;4976063;28;20039;-55
2022/03/05 13:25:52;;;;;;;14.85;10.80;;;;;;;;;;4976434;28;20065;-56
2022/03/05 13:28:20;;;;;;;18.98;12.35;;;;;;;;;;4979920;28;20392;-54
2022/03/05 13:30:51;;;;;;;16.52;12.13;;;;;;;;;;4991290;28;20040;-52
2022/03/05 13:33:36;;;;;;;16.55;12.40;;;;;;;;;;4976080;28;20034;-51
2022/03/05 13:36:15;;;;;;;15.30;12.25;;;;;;;;;;4976399;28;20026;-53
2022/03/05 13:38:42;;;;;;;20.00;13.32;;;;;;;;;;4982247;28;20062;-55
2022/03/05 13:41:09;;;;;;;16.38;12.52;;;;;;;;;;4972233;28;20089;-53
2022/03/05 13:43:36;;;;;;;14.30;11.80;;;;;;;;;;4975777;28;20511;-56
2022/03/05 13:46:03;;;;;;;15.60;12.00;;;;;;;;;;4979498;28;20101;-57
2022/03/05 13:48:29;;;;;;;15.02;11.15;;;;;;;;;;4998511;28;20038;-56
2022/03/05 13:50:55;;;;;;;15.93;11.13;;;;;;;;;;5009763;28;20459;-56
2022/03/05 13:53:21;;;;;;;17.17;11.90;;;;;;;;;;4975583;28;20043;-55
2022/03/05 13:56:00;;;;;;;18.05;12.90;;;;;;;;;;4975746;28;20496;-51
2022/03/05 13:58:26;;;;;;;17.13;12.05;;;;;;;;;;5007423;28;20060;-55
2022/03/05 14:00:52;;;;;;;14.13;10.98;;;;;;;;;;5009782;28;20487;-51
2022/03/05 14:03:18;;;;;;;17.45;11.57;;;;;;;;;;4975836;28;20412;-53
2022/03/05 14:05:44;;;;;;;16.52;11.40;;;;;;;;;;4975303;28;20035;-55
2022/03/05 14:08:10;;;;;;;16.48;11.70;;;;;;;;;;4989945;28;20545;-54
2022/03/05 14:10:39;;;;;;;17.67;12.68;;;;;;;;;;4994999;28;20022;-54
2022/03/05 14:13:15;;;;;;;17.70;12.35;;;;;;;;;;4976407;28;20022;-53
2022/03/05 14:15:41;;;;;;;17.55;12.95;;;;;;;;;;5012127;28;20160;-53
2022/03/05 14:18:11;;;;;;;18.13;12.32;;;;;;;;;;4975195;28;20475;-55
2022/03/05 14:20:44;;;;;;;18.13;12.70;;;;;;;;;;4979173;28;20046;-54
2022/03/05 14:23:23;;;;;;;18.33;12.77;;;;;;;;;;4975406;28;20033;-53
2022/03/05 14:25:53;;;;;;;16.58;12.05;;;;;;;;;;4992687;28;20037;-54
2022/03/05 14:28:21;;;;;;;18.42;13.30;;;;;;;;;;4973764;28;20035;-54